createdAt,value
2019-06-07T00:02:05.896Z,17.80
2019-06-07T00:04:33.441Z,17.72
2019-06-07T00:07:00.819Z,17.88
2019-06-07T00:09:28.251Z,17.72
2019-06-07T00:11:55.713Z,17.53
2019-06-07T00:14:23.113Z,17.40
2019-06-07T00:16:50.555Z,17.33
2019-06-07T00:19:18.992Z,17.29
2019-06-07T00:22:15.841Z,17.29
2019-06-07T00:24:16.866Z,17.32
2019-06-07T00:26:57.735Z,17.39
2019-06-07T00:29:16.771Z,17.14
2019-06-07T00:31:43.979Z,17.01
2019-06-07T00:34:11.949Z,17.16
2019-06-07T00:36:40.734Z,17.11
2019-06-07T00:39:10.511Z,17.07
2019-06-07T00:41:37.823Z,17.11
2019-06-07T00:44:05.247Z,17.06
2019-06-07T00:46:32.690Z,16.96
2019-06-07T00:49:00.108Z,16.95
2019-06-07T00:51:27.525Z,16.76
2019-06-07T00:53:55.034Z,16.56
2019-06-07T00:56:23.527Z,16.62
2019-06-07T00:59:10.309Z,16.75
2019-06-07T01:01:22.686Z,16.84
2019-06-07T01:03:49.772Z,16.67
2019-06-07T01:06:18.119Z,16.87
2019-06-07T01:08:46.536Z,16.97
2019-06-07T01:11:15.910Z,17.00
2019-06-07T01:13:43.321Z,16.91
2019-06-07T01:16:10.762Z,16.90
2019-06-07T01:18:45.984Z,16.95
2019-06-07T01:21:07.610Z,16.89
2019-06-07T01:24:04.926Z,16.83
2019-06-07T01:26:04.372Z,16.75
2019-06-07T01:28:31.963Z,16.67
2019-06-07T01:30:59.600Z,16.59
2019-06-07T01:33:48.813Z,16.49
2019-06-07T01:35:56.546Z,16.44
2019-06-07T01:38:25.026Z,16.34
2019-06-07T01:40:53.302Z,16.34
2019-06-07T01:43:26.082Z,16.43
2019-06-07T01:45:50.003Z,16.46
2019-06-07T01:48:21.013Z,16.37
2019-06-07T01:50:46.856Z,16.33
2019-06-07T01:53:14.289Z,16.26
2019-06-07T01:55:41.660Z,16.16
2019-06-07T01:58:09.100Z,16.03
2019-06-07T02:00:36.509Z,16.16
2019-06-07T02:03:03.954Z,16.07
2019-06-07T02:05:32.424Z,16.16
2019-06-07T02:07:59.952Z,16.29
2019-06-07T02:10:30.267Z,16.49
2019-06-07T02:12:56.809Z,16.40
2019-06-07T02:15:27.562Z,16.18
2019-06-07T02:17:53.627Z,16.19
2019-06-07T02:20:23.857Z,16.09
2019-06-07T02:22:50.344Z,15.87
2019-06-07T02:25:37.294Z,15.75
2019-06-07T02:27:47.545Z,15.86
2019-06-07T02:32:44.833Z,15.82
2019-06-07T02:35:13.191Z,15.83
2019-06-07T02:37:40.599Z,15.83
2019-06-07T02:40:08.958Z,15.87
2019-06-07T02:42:41.884Z,15.75
2019-06-07T02:45:08.154Z,15.84
2019-06-07T02:47:38.039Z,15.72
2019-06-07T02:50:04.973Z,15.67
2019-06-07T02:52:39.161Z,15.68
2019-06-07T02:55:01.851Z,15.58
2019-06-07T02:57:35.573Z,15.24
2019-06-07T03:00:07.771Z,15.36
2019-06-07T03:02:31.624Z,15.42
2019-06-07T03:04:57.521Z,15.54
2019-06-07T03:07:28.286Z,15.50
2019-06-07T03:09:56.645Z,15.60
2019-06-07T03:12:26.572Z,15.61
2019-06-07T03:14:54.949Z,15.59
2019-06-07T03:17:45.731Z,15.69
2019-06-07T03:20:14.396Z,15.67
2019-06-07T03:22:42.382Z,15.70
2019-06-07T03:25:10.230Z,15.69
2019-06-07T03:27:48.266Z,15.73
2019-06-07T03:30:36.429Z,15.77
2019-06-07T03:32:46.261Z,15.87
2019-06-07T03:35:07.150Z,15.96
2019-06-07T03:37:39.499Z,16.11
2019-06-07T03:40:04.399Z,16.13
2019-06-07T03:42:34.119Z,16.24
2019-06-07T03:45:01.199Z,16.50
2019-06-07T03:47:31.927Z,16.51
2019-06-07T03:49:57.873Z,16.71
2019-06-07T03:52:25.317Z,16.71
2019-06-07T03:54:52.763Z,16.77
2019-06-07T03:57:20.135Z,16.85
2019-06-07T03:59:47.582Z,16.83
2019-06-07T04:02:15.033Z,16.89
2019-06-07T04:04:43.446Z,16.97
2019-06-07T04:07:10.875Z,16.97
2019-06-07T04:09:42.024Z,16.98
2019-06-07T04:12:07.633Z,17.24
2019-06-07T04:14:37.697Z,17.07
2019-06-07T04:17:04.518Z,17.09
2019-06-07T04:19:34.808Z,17.39
2019-06-07T04:22:01.283Z,17.35
2019-06-07T04:24:28.727Z,17.67
2019-06-07T04:26:56.230Z,18.04
2019-06-07T04:29:32.904Z,17.92
2019-06-07T04:31:53.169Z,17.98
2019-06-07T04:34:20.726Z,17.91
2019-06-07T04:36:58.539Z,18.09
2019-06-07T04:39:21.868Z,18.34
2019-06-07T04:41:51.599Z,18.20
2019-06-07T04:44:20.937Z,18.43
2019-06-07T04:46:50.378Z,18.76
2019-06-07T04:49:19.501Z,19.26
2019-06-07T04:51:47.826Z,19.68
2019-06-07T04:54:18.278Z,19.71
2019-06-07T04:56:45.697Z,20.13
2019-06-07T04:59:13.102Z,20.53
2019-06-07T05:01:42.621Z,20.85
2019-06-07T05:04:10.008Z,21.19
2019-06-07T05:06:39.661Z,20.85
2019-06-07T05:09:06.768Z,20.59
2019-06-07T05:11:36.427Z,20.52
2019-06-07T05:14:03.642Z,20.45
2019-06-07T05:16:34.753Z,20.30
2019-06-07T05:19:00.483Z,20.57
2019-06-07T05:21:49.168Z,21.14
2019-06-07T05:24:06.280Z,21.54
2019-06-07T05:26:26.546Z,21.95
2019-06-07T05:28:54.021Z,22.35
2019-06-07T05:33:48.415Z,21.98
2019-06-07T05:36:16.034Z,22.03
2019-06-07T05:38:44.989Z,22.30
2019-06-07T05:41:12.643Z,22.51
2019-06-07T05:43:45.657Z,23.25
2019-06-07T05:46:09.513Z,23.32
2019-06-07T05:48:40.306Z,23.61
2019-06-07T05:51:06.404Z,24.06
2019-06-07T05:53:34.707Z,24.03
2019-06-07T05:56:02.393Z,23.75
2019-06-07T05:58:29.882Z,23.77
2019-06-07T06:01:40.848Z,23.31
2019-06-07T06:03:27.112Z,22.92
2019-06-07T06:05:55.733Z,22.77
2019-06-07T06:08:23.492Z,23.09
2019-06-07T06:10:50.920Z,23.49
2019-06-07T06:13:18.857Z,23.56
2019-06-07T06:16:00.591Z,23.39
2019-06-07T06:18:15.633Z,23.48
2019-06-07T06:21:04.937Z,23.38
2019-06-07T06:23:12.385Z,23.77
2019-06-07T06:25:42.642Z,24.64
2019-06-07T06:28:12.279Z,25.30
2019-06-07T06:30:38.455Z,25.54
2019-06-07T06:33:06.081Z,26.20
2019-06-07T06:35:33.505Z,26.45
2019-06-07T06:38:00.991Z,26.65
2019-06-07T06:40:28.452Z,26.92
2019-06-07T06:42:55.918Z,26.59
2019-06-07T06:45:23.551Z,26.84
2019-06-07T06:47:51.040Z,27.15
2019-06-07T06:50:19.802Z,27.48
2019-06-07T06:52:50.770Z,27.14
2019-06-07T06:55:17.155Z,26.99
2019-06-07T06:57:45.839Z,27.16
2019-06-07T07:00:14.376Z,26.55
2019-06-07T07:03:35.087Z,26.60
2019-06-07T07:05:12.058Z,27.04
2019-06-07T07:07:40.286Z,27.11
2019-06-07T07:10:08.656Z,27.11
2019-06-07T07:12:36.059Z,26.90
2019-06-07T07:15:06.280Z,26.79
2019-06-07T07:17:52.642Z,27.08
2019-06-07T07:20:04.211Z,27.07
2019-06-07T07:22:31.677Z,26.97
2019-06-07T07:24:59.145Z,27.21
2019-06-07T07:27:26.489Z,27.15
2019-06-07T07:30:34.273Z,27.04
2019-06-07T07:32:23.260Z,26.90
2019-06-07T07:34:54.502Z,26.79
2019-06-07T07:37:20.027Z,27.32
2019-06-07T07:39:50.496Z,27.23
2019-06-07T07:42:21.154Z,27.28
2019-06-07T07:44:47.221Z,27.37
2019-06-07T07:47:15.704Z,28.03
2019-06-07T07:49:44.737Z,28.12
2019-06-07T07:52:12.473Z,27.87
2019-06-07T07:54:39.915Z,27.74
2019-06-07T07:57:07.346Z,28.62
2019-06-07T07:59:43.987Z,28.54
2019-06-07T08:02:04.108Z,28.37
2019-06-07T08:05:12.857Z,28.40
2019-06-07T08:07:00.756Z,28.12
2019-06-07T08:09:28.240Z,28.00
2019-06-07T08:12:00.286Z,27.58
2019-06-07T08:14:25.052Z,27.53
2019-06-07T08:16:54.489Z,27.08
2019-06-07T08:19:21.928Z,27.50
2019-06-07T08:21:50.605Z,27.42
2019-06-07T08:24:18.173Z,27.43
2019-06-07T08:27:06.724Z,27.18
2019-06-07T08:29:14.971Z,27.07
2019-06-07T08:31:42.460Z,27.01
2019-06-07T08:34:09.900Z,26.98
2019-06-07T08:36:42.376Z,27.18
2019-06-07T08:39:07.892Z,27.03
2019-06-07T08:41:35.987Z,27.04
2019-06-07T08:44:22.398Z,27.05
2019-06-07T08:46:33.110Z,27.27
2019-06-07T08:49:03.975Z,27.72
2019-06-07T08:51:30.374Z,27.96
2019-06-07T08:54:20.617Z,27.90
2019-06-07T08:56:27.251Z,27.68
2019-06-07T08:58:56.859Z,27.55
2019-06-07T09:01:24.003Z,27.53
2019-06-07T09:03:52.093Z,27.62
2019-06-07T09:07:01.881Z,27.82
2019-06-07T09:08:50.087Z,27.92
2019-06-07T09:11:17.531Z,27.98
2019-06-07T09:13:45.031Z,27.95
2019-06-07T09:16:12.559Z,27.90
2019-06-07T09:18:43.668Z,28.06
2019-06-07T09:21:09.876Z,28.26
2019-06-07T09:23:37.681Z,28.74
2019-06-07T09:26:15.992Z,29.12
2019-06-07T09:28:34.619Z,29.20
2019-06-07T09:31:07.837Z,28.90
2019-06-07T09:33:31.584Z,28.58
2019-06-07T09:36:01.579Z,28.23
2019-06-07T09:38:28.364Z,28.20
2019-06-07T09:40:56.319Z,28.21
2019-06-07T09:44:00.847Z,28.17
2019-06-07T09:45:54.514Z,28.48
2019-06-07T09:49:08.936Z,28.58
2019-06-07T09:50:51.292Z,28.58
2019-06-07T09:53:22.814Z,28.77
2019-06-07T09:55:47.989Z,28.93
2019-06-07T09:58:50.464Z,28.85
2019-06-07T10:00:44.841Z,28.76
2019-06-07T10:03:21.019Z,28.77
2019-06-07T10:05:41.778Z,28.52
2019-06-07T10:08:41.401Z,28.42
2019-06-07T10:10:38.505Z,28.41
2019-06-07T10:13:06.595Z,28.69
2019-06-07T10:15:35.404Z,28.80
2019-06-07T10:18:02.985Z,28.79
2019-06-07T10:20:30.477Z,28.69
2019-06-07T10:22:59.422Z,28.61
2019-06-07T10:25:27.125Z,28.66
2019-06-07T10:27:54.551Z,28.87
2019-06-07T10:30:22.281Z,29.03
2019-06-07T10:32:52.204Z,29.46
2019-06-07T10:35:19.147Z,29.48
2019-06-07T10:37:46.564Z,29.19
2019-06-07T10:40:15.083Z,29.37
2019-06-07T10:42:42.531Z,29.70
2019-06-07T10:45:12.265Z,30.23
2019-06-07T10:47:39.854Z,30.43
2019-06-07T10:50:08.161Z,30.69
2019-06-07T10:52:35.858Z,30.88
2019-06-07T10:55:04.558Z,30.93
2019-06-07T10:57:32.070Z,31.58
2019-06-07T10:59:59.521Z,31.29
2019-06-07T11:02:27.035Z,31.18
2019-06-07T11:04:54.468Z,31.44
2019-06-07T11:07:21.910Z,31.54
2019-06-07T11:10:05.618Z,31.60
2019-06-07T11:12:18.643Z,31.67
2019-06-07T11:14:46.335Z,31.77
2019-06-07T11:17:15.510Z,31.52
2019-06-07T11:19:43.126Z,30.95
2019-06-07T11:22:10.692Z,30.71
2019-06-07T11:24:38.101Z,30.35
2019-06-07T11:27:07.225Z,30.37
2019-06-07T11:29:34.952Z,30.29
2019-06-07T11:32:02.369Z,30.27
2019-06-07T11:34:30.225Z,30.35
2019-06-07T11:36:57.647Z,30.27
2019-06-07T11:39:25.202Z,30.53
2019-06-07T11:41:52.646Z,31.07
2019-06-07T11:44:20.006Z,31.00
2019-06-07T11:46:47.581Z,30.57
2019-06-07T11:49:20.259Z,30.42
2019-06-07T11:51:44.475Z,30.60
2019-06-07T11:54:12.123Z,31.07
2019-06-07T11:56:39.702Z,31.45
2019-06-07T11:59:07.157Z,31.67
2019-06-07T12:01:37.267Z,31.32
2019-06-07T12:04:03.901Z,31.18
2019-06-07T12:06:31.354Z,31.03
2019-06-07T12:08:58.850Z,30.78
2019-06-07T12:11:26.245Z,31.11
2019-06-07T12:13:53.691Z,31.38
2019-06-07T12:16:21.641Z,31.50
2019-06-07T12:18:49.148Z,31.62
2019-06-07T12:21:17.988Z,31.72
2019-06-07T12:23:45.656Z,31.30
2019-06-07T12:26:14.326Z,30.93
2019-06-07T12:28:42.111Z,30.83
2019-06-07T12:31:10.818Z,30.88
2019-06-07T12:33:38.422Z,30.71
2019-06-07T12:36:06.048Z,30.72
2019-06-07T12:38:33.581Z,30.68
2019-06-07T12:41:01.002Z,30.47
2019-06-07T12:43:28.463Z,30.23
2019-06-07T12:45:55.929Z,30.13
2019-06-07T12:48:25.964Z,30.30
2019-06-07T12:50:52.866Z,30.33
2019-06-07T12:53:24.906Z,30.44
2019-06-07T12:55:49.694Z,30.39
2019-06-07T12:58:22.067Z,30.23
2019-06-07T13:00:46.559Z,30.45
2019-06-07T13:03:14.322Z,30.46
2019-06-07T13:05:41.822Z,30.46
2019-06-07T13:08:09.333Z,30.42
2019-06-07T13:10:36.796Z,30.48
2019-06-07T13:13:04.341Z,30.68
2019-06-07T13:15:31.871Z,30.84
2019-06-07T13:17:59.327Z,30.95
2019-06-07T13:20:26.746Z,30.89
2019-06-07T13:22:54.323Z,30.54
2019-06-07T13:25:25.472Z,30.27
2019-06-07T13:27:51.152Z,30.42
2019-06-07T13:30:19.012Z,30.76
2019-06-07T13:32:46.527Z,30.78
2019-06-07T13:35:14.877Z,30.66
2019-06-07T13:37:42.663Z,30.66
2019-06-07T13:40:11.719Z,30.54
2019-06-07T13:42:39.171Z,30.47
2019-06-07T13:45:08.345Z,30.37
2019-06-07T13:47:35.769Z,30.60
2019-06-07T13:50:03.916Z,30.71
2019-06-07T13:52:31.360Z,30.55
2019-06-07T13:55:02.112Z,30.53
2019-06-07T13:57:28.209Z,30.57
2019-06-07T13:59:55.666Z,30.57
2019-06-07T14:02:24.035Z,30.78
2019-06-07T14:04:52.367Z,30.88
2019-06-07T14:07:21.233Z,30.78
2019-06-07T14:09:48.854Z,30.71
2019-06-07T14:12:16.250Z,30.54
2019-06-07T14:14:43.856Z,30.73
2019-06-07T14:17:11.767Z,30.74
2019-06-07T14:19:39.193Z,30.85
2019-06-07T14:22:06.608Z,30.88
2019-06-07T14:24:34.079Z,31.00
2019-06-07T14:27:07.560Z,31.09
2019-06-07T14:29:35.949Z,31.07
2019-06-07T14:32:03.945Z,31.01
2019-06-07T14:34:32.653Z,31.02
2019-06-07T14:37:00.246Z,31.07
2019-06-07T14:39:29.665Z,31.25
2019-06-07T14:42:08.569Z,31.56
2019-06-07T14:44:27.771Z,31.99
2019-06-07T14:46:55.341Z,32.26
2019-06-07T14:49:24.272Z,32.35
2019-06-07T14:51:52.147Z,32.52
2019-06-07T14:54:19.609Z,32.19
2019-06-07T14:56:47.100Z,32.23
2019-06-07T14:59:14.681Z,32.18
2019-06-07T15:01:42.174Z,31.93
2019-06-07T15:04:09.668Z,31.52
2019-06-07T15:06:37.127Z,31.24
2019-06-07T15:09:05.732Z,30.56
2019-06-07T15:11:33.526Z,30.42
2019-06-07T15:14:01.020Z,30.26
2019-06-07T15:16:29.987Z,30.19
2019-06-07T15:18:57.796Z,29.89
2019-06-07T15:21:26.615Z,29.70
2019-06-07T15:23:54.210Z,29.54
2019-06-07T15:26:21.672Z,29.64
2019-06-07T15:28:49.145Z,29.33
2019-06-07T15:31:16.582Z,29.23
2019-06-07T15:33:44.045Z,29.17
2019-06-07T15:36:11.526Z,28.92
2019-06-07T15:38:39.622Z,28.66
2019-06-07T15:41:07.209Z,28.64
2019-06-07T15:43:35.159Z,28.79
2019-06-07T15:46:02.684Z,28.89
2019-06-07T15:48:30.175Z,29.05
2019-06-07T15:50:57.639Z,28.89
2019-06-07T15:53:25.197Z,28.91
2019-06-07T15:55:52.555Z,29.01
2019-06-07T15:58:20.000Z,28.87
2019-06-07T16:00:50.024Z,28.63
2019-06-07T16:03:16.869Z,28.69
2019-06-07T16:05:44.260Z,28.50
2019-06-07T16:08:11.808Z,28.43
2019-06-07T16:10:40.852Z,28.28
2019-06-07T16:13:08.415Z,28.33
2019-06-07T16:15:37.054Z,28.37
2019-06-07T16:18:04.783Z,28.48
2019-06-07T16:20:33.240Z,28.45
2019-06-07T16:23:00.840Z,28.39
2019-06-07T16:25:28.237Z,28.29
2019-06-07T16:27:55.682Z,28.48
2019-06-07T16:30:23.358Z,28.35
2019-06-07T16:32:50.915Z,28.43
2019-06-07T16:35:18.512Z,28.28
2019-06-07T16:37:51.594Z,28.32
2019-06-07T16:40:15.463Z,28.25
2019-06-07T16:42:43.113Z,28.14
2019-06-07T16:45:12.790Z,28.06
2019-06-07T16:47:42.745Z,28.01
2019-06-07T16:50:15.103Z,27.93
2019-06-07T16:52:46.652Z,27.86
2019-06-07T16:55:15.646Z,27.63
2019-06-07T16:57:43.054Z,27.62
2019-06-07T17:00:11.143Z,27.55
2019-06-07T17:02:40.126Z,27.69
2019-06-07T17:05:08.440Z,27.64
2019-06-07T17:07:36.188Z,27.63
2019-06-07T17:10:04.632Z,27.59
2019-06-07T17:12:32.070Z,27.82
2019-06-07T17:14:59.717Z,27.77
2019-06-07T17:17:27.201Z,27.89
2019-06-07T17:19:54.681Z,28.00
2019-06-07T17:22:22.156Z,27.82
2019-06-07T17:24:49.973Z,27.84
2019-06-07T17:27:17.648Z,27.85
2019-06-07T17:29:45.836Z,27.77
2019-06-07T17:32:15.964Z,27.62
2019-06-07T17:34:44.283Z,27.39
2019-06-07T17:37:11.918Z,27.32
2019-06-07T17:39:40.547Z,27.24
2019-06-07T17:42:08.102Z,27.10
2019-06-07T17:44:35.563Z,26.97
2019-06-07T17:47:03.143Z,26.79
2019-06-07T17:49:30.581Z,26.54
2019-06-07T17:51:58.032Z,26.63
2019-06-07T17:54:25.541Z,26.57
2019-06-07T17:56:53.432Z,26.79
2019-06-07T17:59:21.061Z,26.89
2019-06-07T18:02:10.230Z,26.77
2019-06-07T18:04:18.057Z,26.84
2019-06-07T18:06:47.241Z,26.77
2019-06-07T18:09:14.933Z,26.83
2019-06-07T18:11:43.759Z,26.75
2019-06-07T18:14:11.505Z,26.71
2019-06-07T18:16:39.034Z,26.45
2019-06-07T18:19:06.532Z,26.51
2019-06-07T18:21:33.968Z,26.33
2019-06-07T18:24:01.363Z,26.19
2019-06-07T18:26:28.900Z,25.89
2019-06-07T18:28:56.354Z,25.89
2019-06-07T18:31:23.752Z,25.86
2019-06-07T18:33:51.288Z,25.62
2019-06-07T18:36:18.864Z,25.54
2019-06-07T18:38:46.886Z,25.53
2019-06-07T18:41:14.423Z,25.48
2019-06-07T18:43:41.821Z,25.51
2019-06-07T18:46:09.245Z,25.42
2019-06-07T18:48:36.847Z,25.39
2019-06-07T18:51:04.480Z,25.45
2019-06-07T18:53:31.938Z,25.32
2019-06-07T18:55:59.388Z,25.21
2019-06-07T18:58:26.877Z,25.17
2019-06-07T19:00:55.468Z,24.99
2019-06-07T19:03:22.991Z,24.98
2019-06-07T19:05:50.413Z,24.81
2019-06-07T19:08:17.793Z,24.86
2019-06-07T19:10:45.252Z,24.78
2019-06-07T19:13:12.677Z,24.64
2019-06-07T19:15:43.231Z,24.44
2019-06-07T19:18:09.772Z,24.41
2019-06-07T19:20:37.309Z,24.48
2019-06-07T19:23:04.877Z,24.38
2019-06-07T19:25:32.291Z,24.50
2019-06-07T19:28:01.063Z,24.44
2019-06-07T19:30:28.630Z,24.32
2019-06-07T19:32:57.298Z,24.28
2019-06-07T19:35:25.012Z,24.29
2019-06-07T19:37:53.787Z,24.31
2019-06-07T19:40:21.499Z,24.17
2019-06-07T19:42:49.322Z,24.18
2019-06-07T19:45:34.231Z,24.15
2019-06-07T19:47:48.738Z,24.02
2019-06-07T19:50:17.781Z,24.00
2019-06-07T19:52:45.275Z,23.97
2019-06-07T19:55:13.767Z,23.99
2019-06-07T19:57:41.175Z,24.01
2019-06-07T20:00:14.624Z,23.93
2019-06-07T20:02:40.497Z,23.82
2019-06-07T20:05:11.593Z,23.82
2019-06-07T20:07:39.048Z,23.66
2019-06-07T20:10:06.735Z,23.63
2019-06-07T20:12:34.174Z,23.64
2019-06-07T20:15:23.512Z,23.59
2019-06-07T20:17:31.506Z,23.39
2019-06-07T20:20:00.368Z,23.33
2019-06-07T20:22:28.062Z,23.34
2019-06-07T20:24:56.690Z,23.31
2019-06-07T20:27:24.256Z,23.18
2019-06-07T20:29:51.903Z,23.19
2019-06-07T20:32:19.338Z,23.15
2019-06-07T20:34:46.773Z,23.16
2019-06-07T20:37:14.161Z,23.00
2019-06-07T20:39:41.561Z,22.79
2019-06-07T20:42:08.994Z,22.95
2019-06-07T20:44:36.437Z,22.77
2019-06-07T20:47:06.155Z,22.72
2019-06-07T20:49:33.832Z,22.70
2019-06-07T20:52:03.029Z,22.69
2019-06-07T20:54:30.525Z,22.56
2019-06-07T20:56:58.782Z,22.66
2019-06-07T20:59:26.310Z,22.58
2019-06-07T21:01:53.739Z,22.53
2019-06-07T21:04:21.184Z,22.53
2019-06-07T21:06:48.540Z,22.46
2019-06-07T21:09:15.980Z,22.40
2019-06-07T21:11:43.417Z,22.45
2019-06-07T21:14:10.781Z,22.43
2019-06-07T21:16:38.210Z,22.28
2019-06-07T21:19:06.319Z,22.22
2019-06-07T21:21:33.810Z,22.20
2019-06-07T21:24:02.468Z,22.15
2019-06-07T21:26:29.968Z,22.13
2019-06-07T21:28:57.369Z,22.10
2019-06-07T21:31:24.793Z,21.98
2019-06-07T21:33:52.227Z,21.96
2019-06-07T21:36:19.666Z,21.95
2019-06-07T21:38:47.108Z,22.01
2019-06-07T21:41:14.467Z,21.96
2019-06-07T21:43:41.909Z,21.88
2019-06-07T21:46:17.317Z,21.81
2019-06-07T21:48:38.632Z,21.92
2019-06-07T21:51:06.410Z,21.84
2019-06-07T21:53:33.941Z,21.82
2019-06-07T21:56:02.766Z,21.81
2019-06-07T21:58:30.369Z,21.85
2019-06-07T22:01:28.642Z,21.90
2019-06-07T22:03:56.069Z,22.00
2019-06-07T22:06:23.625Z,21.94
2019-06-07T22:08:51.079Z,21.94
2019-06-07T22:11:18.488Z,21.82
2019-06-07T22:13:45.925Z,21.87
2019-06-07T22:16:26.766Z,21.81
2019-06-07T22:18:43.314Z,21.75
2019-06-07T22:21:10.841Z,21.82
2019-06-07T22:23:38.294Z,21.71
2019-06-07T22:26:06.995Z,21.64
2019-06-07T22:28:34.588Z,21.58
2019-06-07T22:31:02.019Z,21.57
2019-06-07T22:33:29.408Z,21.63
2019-06-07T22:35:56.930Z,21.66
2019-06-07T22:38:24.375Z,21.60
2019-06-07T22:40:51.747Z,21.52
2019-06-07T22:43:19.312Z,21.51
2019-06-07T22:45:46.777Z,21.49
2019-06-07T22:48:15.424Z,21.46
2019-06-07T22:50:42.926Z,21.42
2019-06-07T22:53:11.390Z,21.41
2019-06-07T22:55:38.978Z,21.43
2019-06-07T22:58:06.343Z,21.30
2019-06-07T23:00:34.776Z,21.23
2019-06-07T23:03:02.178Z,21.11
2019-06-07T23:05:29.570Z,21.15
2019-06-07T23:07:56.919Z,21.16
2019-06-07T23:10:24.358Z,21.25
2019-06-07T23:12:51.772Z,21.22
2019-06-07T23:15:20.731Z,21.24
2019-06-07T23:17:48.473Z,21.16
2019-06-07T23:20:17.864Z,21.10
2019-06-07T23:22:45.687Z,21.01
2019-06-07T23:25:17.644Z,20.99
2019-06-07T23:27:42.986Z,20.91
2019-06-07T23:30:12.398Z,20.90
2019-06-07T23:32:39.961Z,21.08
2019-06-07T23:35:08.107Z,21.00
2019-06-07T23:37:35.557Z,20.91
2019-06-07T23:40:03.518Z,20.98
2019-06-07T23:42:31.176Z,20.91
2019-06-07T23:44:58.511Z,20.83
2019-06-07T23:47:25.941Z,20.74
2019-06-07T23:49:53.354Z,20.68
2019-06-07T23:52:21.978Z,20.70
2019-06-07T23:54:49.611Z,20.53
2019-06-07T23:57:19.244Z,20.62
2019-06-07T23:59:46.384Z,20.52
